Time;durP1;ratioP1;P1;durP2;ratioP2;P2;SDS_P1;SDS_P2;PMS_P1;PMS_P2;Temp;Humidity;BMP_temperature;BMP_pressure;BME280_temperature;BME280_humidity;BME280_pressure;Samples;Min_cycle;Max_cycle;Signal;HPM_P1;HPM_P2
2022/07/29 00:02:08;;;;;;;3.20;2.70;;;23.20;61.60;;;;;;5052459;28;20277;-70
2022/07/29 00:04:35;;;;;;;6.87;2.73;;;23.20;63.30;;;;;;5042676;28;20221;-70
2022/07/29 00:07:01;;;;;;;2.87;2.40;;;23.20;63.70;;;;;;5053311;28;20264;-69
2022/07/29 00:09:27;;;;;;;2.63;2.43;;;23.20;64.00;;;;;;5070441;28;20968;-69
2022/07/29 00:11:54;;;;;;;6.70;2.80;;;23.20;64.70;;;;;;5052600;28;20310;-69
2022/07/29 00:14:20;;;;;;;4.80;3.20;;;23.10;65.60;;;;;;5034279;28;20262;-69
2022/07/29 00:16:46;;;;;;;4.63;2.53;;;23.10;65.50;;;;;;5052896;28;20532;-69
2022/07/29 00:19:11;;;;;;;3.07;2.80;;;23.10;64.70;;;;;;5067519;28;20250;-68
2022/07/29 00:21:37;;;;;;;9.93;2.90;;;23.10;66.70;;;;;;5038931;28;20234;-68
2022/07/29 00:24:03;;;;;;;3.10;2.80;;;23.10;65.90;;;;;;5042204;28;20219;-70
2022/07/29 00:26:31;;;;;;;3.57;2.40;;;23.10;66.80;;;;;;5052240;28;20314;-69
2022/07/29 00:28:58;;;;;;;2.97;2.77;;;23.00;66.70;;;;;;5039000;28;20461;-69
2022/07/29 00:31:24;;;;;;;3.00;2.80;;;23.00;65.90;;;;;;5070374;28;20465;-69
2022/07/29 00:33:50;;;;;;;3.00;2.70;;;23.00;65.50;;;;;;5052345;28;20448;-69
2022/07/29 00:36:15;;;;;;;3.00;2.70;;;22.90;65.50;;;;;;5049638;28;20706;-68
2022/07/29 00:38:44;;;;;;;3.23;2.60;;;22.90;68.00;;;;;;5051486;28;20841;-69
2022/07/29 00:41:11;;;;;;;3.00;2.80;;;22.90;67.80;;;;;;5036016;28;20222;-69
2022/07/29 00:43:37;;;;;;;3.30;2.70;;;22.90;67.20;;;;;;5032062;28;20453;-68
2022/07/29 00:46:03;;;;;;;4.10;3.80;;;22.90;66.90;;;;;;5065151;28;20816;-68
2022/07/29 00:48:29;;;;;;;3.40;3.00;;;22.90;67.60;;;;;;5034771;28;20314;-69
2022/07/29 00:50:58;;;;;;;3.93;3.20;;;22.80;68.40;;;;;;5046581;28;20231;-69
2022/07/29 00:53:25;;;;;;;2.67;2.47;;;22.80;68.70;;;;;;5033984;28;20223;-69
2022/07/29 00:55:50;;;;;;;3.10;2.60;;;22.80;68.10;;;;;;5052144;28;20481;-68
2022/07/29 00:58:16;;;;;;;2.83;2.63;;;22.80;68.50;;;;;;5034027;28;21015;-69
2022/07/29 01:00:42;;;;;;;4.07;2.90;;;22.90;68.10;;;;;;5052033;28;20717;-69
2022/07/29 01:03:08;;;;;;;4.03;2.70;;;22.90;69.40;;;;;;5066858;28;20608;-68
2022/07/29 01:05:35;;;;;;;3.37;2.90;;;22.80;69.90;;;;;;5028622;28;20506;-69
2022/07/29 01:08:01;;;;;;;4.03;3.10;;;22.80;71.50;;;;;;5050400;28;20359;-69
2022/07/29 01:10:28;;;;;;;5.50;4.77;;;22.70;74.30;;;;;;5051187;28;20979;-69
2022/07/29 01:12:56;;;;;;;5.10;2.63;;;22.60;73.70;;;;;;5050239;28;20477;-69
2022/07/29 01:15:22;;;;;;;4.37;3.30;;;22.50;72.50;;;;;;5045645;28;20837;-69
2022/07/29 01:17:48;;;;;;;3.47;3.17;;;22.50;73.50;;;;;;5051321;28;20898;-69
2022/07/29 01:20:24;;;;;;;3.73;3.40;;;22.50;73.10;;;;;;5055973;28;20548;-69
2022/07/29 01:22:53;;;;;;;6.47;3.60;;;22.50;77.20;;;;;;5045132;28;20221;-69
2022/07/29 01:25:36;;;;;;;10.03;3.80;;;22.40;77.10;;;;;;5034444;28;20472;-69
2022/07/29 01:28:37;;;;;;;4.60;3.67;;;22.20;78.70;;;;;;5039719;28;20528;-69
2022/07/29 01:31:07;;;;;;;4.43;3.40;;;22.00;77.80;;;;;;5002360;28;20496;-70
2022/07/29 01:33:49;;;;;;;3.20;2.90;;;22.00;77.60;;;;;;5022031;28;20462;-69
2022/07/29 01:36:22;;;;;;;4.30;2.97;;;21.80;76.90;;;;;;5031424;28;21000;-70
2022/07/29 01:39:01;;;;;;;3.00;2.80;;;21.80;77.50;;;;;;5028178;28;20805;-70
2022/07/29 01:41:32;;;;;;;3.83;3.23;;;21.80;78.30;;;;;;5029206;28;20445;-70
2022/07/29 01:44:13;;;;;;;3.27;2.83;;;21.80;77.90;;;;;;5049565;28;21011;-70
2022/07/29 01:46:44;;;;;;;4.30;3.10;;;21.80;77.50;;;;;;5025934;28;20454;-70
2022/07/29 01:49:21;;;;;;;5.60;2.90;;;21.80;78.80;;;;;;5047544;28;20457;-69
2022/07/29 01:51:51;;;;;;;3.17;2.97;;;21.80;78.30;;;;;;5062861;28;21031;-70
2022/07/29 01:54:35;;;;;;;3.80;3.10;;;21.80;77.70;;;;;;5039031;28;20458;-70
2022/07/29 01:57:04;;;;;;;4.70;3.23;;;21.80;77.70;;;;;;5028111;28;20840;-70
2022/07/29 01:59:31;;;;;;;5.27;3.20;;;21.80;78.40;;;;;;5046576;28;20869;-69
2022/07/29 02:01:59;;;;;;;4.07;2.87;;;21.80;78.40;;;;;;5032596;28;20504;-70
2022/07/29 02:04:27;;;;;;;4.20;3.07;;;21.80;79.00;;;;;;5028127;28;20451;-70
2022/07/29 02:06:56;;;;;;;4.90;3.00;;;21.60;78.80;;;;;;5075770;28;20472;-70
2022/07/29 02:09:24;;;;;;;3.20;2.97;;;21.60;78.40;;;;;;5061871;28;20548;-70
2022/07/29 02:11:53;;;;;;;5.53;3.40;;;21.60;78.30;;;;;;5033116;28;20453;-69
2022/07/29 02:14:22;;;;;;;3.50;3.00;;;21.60;77.50;;;;;;5066551;28;20463;-69
2022/07/29 02:16:50;;;;;;;5.77;3.20;;;21.60;77.80;;;;;;5060981;28;20477;-70
2022/07/29 02:19:19;;;;;;;5.53;4.17;;;21.60;79.10;;;;;;5034113;28;20497;-70
2022/07/29 02:21:46;;;;;;;3.70;3.07;;;21.60;78.30;;;;;;5065787;28;20485;-68
2022/07/29 02:24:12;;;;;;;5.27;3.63;;;21.60;79.30;;;;;;5065799;28;20461;-69
2022/07/29 02:26:41;;;;;;;4.50;3.60;;;21.60;78.50;;;;;;5050248;28;20518;-69
2022/07/29 02:29:09;;;;;;;3.27;3.07;;;21.60;79.10;;;;;;5046286;28;20960;-70
2022/07/29 02:31:37;;;;;;;3.63;3.13;;;21.50;80.60;;;;;;5068174;28;20511;-70
2022/07/29 02:34:06;;;;;;;6.23;3.20;;;21.40;80.10;;;;;;5064433;28;20504;-69
2022/07/29 02:36:33;;;;;;;3.17;2.90;;;21.30;80.70;;;;;;5049370;28;20548;-69
2022/07/29 02:39:00;;;;;;;3.80;3.20;;;21.30;80.70;;;;;;5045939;28;20465;-69
2022/07/29 02:41:41;;;;;;;3.43;3.13;;;21.20;81.30;;;;;;5054124;28;20469;-69
2022/07/29 02:44:14;;;;;;;3.40;3.10;;;21.10;82.30;;;;;;5037256;28;20457;-69
2022/07/29 02:46:53;;;;;;;8.93;4.20;;;21.10;82.20;;;;;;5046230;28;20546;-70
2022/07/29 02:49:32;;;;;;;5.73;3.60;;;20.90;82.40;;;;;;5071585;28;20461;-70
2022/07/29 02:52:03;;;;;;;3.90;3.27;;;20.90;82.20;;;;;;5051485;28;20453;-69
2022/07/29 02:54:40;;;;;;;3.83;3.23;;;20.90;82.30;;;;;;5069701;28;20441;-70
2022/07/29 02:57:17;;;;;;;4.00;3.70;;;20.90;82.30;;;;;;5047628;28;20465;-71
2022/07/29 02:59:47;;;;;;;4.90;3.00;;;21.00;83.20;;;;;;5029864;28;20567;-70
2022/07/29 03:02:14;;;;;;;6.50;3.90;;;21.00;82.90;;;;;;5054604;28;20465;-69
2022/07/29 03:04:42;;;;;;;5.60;3.23;;;21.00;83.20;;;;;;5052198;28;20457;-71
2022/07/29 03:07:10;;;;;;;3.30;3.00;;;20.90;83.00;;;;;;5029319;28;20457;-71
2022/07/29 03:09:37;;;;;;;3.80;3.50;;;20.90;82.50;;;;;;5054391;28;20519;-71
2022/07/29 03:12:04;;;;;;;3.60;3.30;;;20.90;82.30;;;;;;5054132;28;20457;-70
2022/07/29 03:14:31;;;;;;;3.50;3.20;;;20.90;81.90;;;;;;5051087;28;20798;-70
2022/07/29 03:16:58;;;;;;;3.80;3.33;;;20.90;82.10;;;;;;5044079;28;20476;-71
2022/07/29 03:19:23;;;;;;;7.33;3.73;;;20.80;81.80;;;;;;5091410;28;20461;-71
2022/07/29 03:21:49;;;;;;;9.23;3.10;;;20.70;83.20;;;;;;5054414;28;20458;-70
2022/07/29 03:24:25;;;;;;;4.80;4.23;;;20.60;82.90;;;;;;5054357;28;20284;-70
2022/07/29 03:26:51;;;;;;;5.47;3.10;;;20.50;83.50;;;;;;5036307;28;20214;-70
2022/07/29 03:29:17;;;;;;;3.00;2.80;;;20.50;83.00;;;;;;5071675;28;20511;-71
2022/07/29 03:31:43;;;;;;;3.73;3.33;;;20.50;83.40;;;;;;5054046;28;20281;-70
2022/07/29 03:34:08;;;;;;;5.63;3.50;;;20.60;83.30;;;;;;5050942;28;20314;-71
2022/07/29 03:36:34;;;;;;;3.77;3.47;;;20.50;83.60;;;;;;5053273;28;20234;-70
2022/07/29 03:39:01;;;;;;;3.57;3.27;;;20.50;83.40;;;;;;5069713;28;20242;-71
2022/07/29 03:41:27;;;;;;;3.57;3.23;;;20.40;83.30;;;;;;5053210;28;20231;-71
2022/07/29 03:43:54;;;;;;;2.97;2.67;;;20.40;83.40;;;;;;5053935;28;20457;-69
2022/07/29 03:46:23;;;;;;;3.60;3.40;;;20.40;83.40;;;;;;5045020;28;20520;-71
2022/07/29 03:48:55;;;;;;;3.90;3.37;;;20.50;83.50;;;;;;5048316;28;20474;-70
2022/07/29 03:51:20;;;;;;;10.70;4.20;;;20.50;82.90;;;;;;5036378;28;20461;-71
2022/07/29 03:53:46;;;;;;;4.87;4.13;;;20.30;83.20;;;;;;5065904;28;20507;-71
2022/07/29 03:56:16;;;;;;;5.60;3.57;;;20.20;83.40;;;;;;5052893;28;20242;-72
2022/07/29 03:58:44;;;;;;;4.07;3.50;;;20.30;83.80;;;;;;5061467;28;20222;-71
2022/07/29 04:01:10;;;;;;;4.40;3.30;;;20.30;83.30;;;;;;5053726;28;20999;-70
2022/07/29 04:03:36;;;;;;;5.07;3.30;;;20.10;84.10;;;;;;5037318;28;20457;-70
2022/07/29 04:06:06;;;;;;;3.40;3.10;;;20.10;84.80;;;;;;5054199;28;20988;-71
2022/07/29 04:08:34;;;;;;;3.57;3.20;;;20.10;84.50;;;;;;5047143;28;20293;-70
2022/07/29 04:11:00;;;;;;;4.67;3.33;;;20.00;84.80;;;;;;5036706;28;20461;-71
2022/07/29 04:13:26;;;;;;;4.03;3.67;;;20.10;84.50;;;;;;5068450;28;20477;-71
2022/07/29 04:15:52;;;;;;;3.20;2.93;;;20.10;84.50;;;;;;5052346;28;20469;-71
2022/07/29 04:18:17;;;;;;;3.80;3.23;;;20.20;83.80;;;;;;5037884;28;20250;-71
2022/07/29 04:20:43;;;;;;;3.93;3.50;;;20.20;83.90;;;;;;5036804;28;20306;-71
2022/07/29 04:23:09;;;;;;;5.10;3.70;;;20.10;83.40;;;;;;5066681;28;20309;-71
2022/07/29 04:25:38;;;;;;;4.37;2.93;;;20.20;83.30;;;;;;5051443;28;20215;-70
2022/07/29 04:28:05;;;;;;;4.30;3.93;;;20.10;83.40;;;;;;5055720;28;20306;-71
2022/07/29 04:30:33;;;;;;;3.53;3.13;;;20.00;83.80;;;;;;5069868;28;20494;-71
2022/07/29 04:33:00;;;;;;;4.07;3.37;;;20.10;83.60;;;;;;5034733;28;20461;-69
2022/07/29 04:35:26;;;;;;;3.57;3.10;;;20.10;83.80;;;;;;5065802;28;20542;-69
2022/07/29 04:37:52;;;;;;;3.73;3.53;;;20.10;83.40;;;;;;5056059;28;20506;-69
2022/07/29 04:40:18;;;;;;;4.70;3.97;;;20.10;83.10;;;;;;5054457;28;20461;-70
2022/07/29 04:42:44;;;;;;;3.67;3.37;;;20.10;83.10;;;;;;5061404;28;20229;-70
2022/07/29 04:45:10;;;;;;;8.00;4.20;;;20.10;83.00;;;;;;5070316;28;20215;-70
2022/07/29 04:47:35;;;;;;;5.83;4.03;;;20.10;83.00;;;;;;5035684;28;20298;-70
2022/07/29 04:50:01;;;;;;;5.03;3.40;;;20.10;83.60;;;;;;5052687;28;20760;-70
2022/07/29 04:52:27;;;;;;;6.63;4.30;;;20.10;83.00;;;;;;5032404;28;20686;-71
2022/07/29 04:54:53;;;;;;;3.97;3.67;;;20.10;83.70;;;;;;5051027;28;20453;-71
2022/07/29 04:57:18;;;;;;;4.97;3.67;;;20.10;83.00;;;;;;5069431;28;20234;-71
2022/07/29 04:59:44;;;;;;;4.53;3.80;;;20.10;83.40;;;;;;5069428;28;20223;-71
2022/07/29 05:02:10;;;;;;;4.90;3.47;;;20.10;84.90;;;;;;5052385;28;20242;-71
2022/07/29 05:04:35;;;;;;;4.87;3.40;;;20.10;84.90;;;;;;5079054;28;20243;-70
2022/07/29 05:07:01;;;;;;;4.80;3.50;;;20.10;84.80;;;;;;5052198;28;20231;-71
2022/07/29 05:09:27;;;;;;;5.27;3.70;;;20.10;84.60;;;;;;5066470;28;20710;-71
2022/07/29 05:11:52;;;;;;;3.83;3.53;;;20.10;84.70;;;;;;5046268;28;20220;-71
2022/07/29 05:14:18;;;;;;;3.63;3.43;;;20.10;85.20;;;;;;5039420;28;20224;-71
2022/07/29 05:16:44;;;;;;;3.27;3.00;;;20.10;85.20;;;;;;5035800;28;20730;-70
2022/07/29 05:19:09;;;;;;;3.50;3.20;;;20.10;84.30;;;;;;5037583;28;20231;-70
2022/07/29 05:21:35;;;;;;;3.17;2.87;;;20.10;83.50;;;;;;5067963;28;20235;-69
2022/07/29 05:24:01;;;;;;;5.17;3.57;;;20.20;83.20;;;;;;5031633;28;20224;-71
2022/07/29 05:26:27;;;;;;;4.23;3.70;;;20.20;86.00;;;;;;5041183;28;20219;-70
2022/07/29 05:28:53;;;;;;;3.73;3.43;;;20.20;84.20;;;;;;5054862;28;20687;-70
2022/07/29 05:31:19;;;;;;;3.63;3.30;;;20.20;85.40;;;;;;5035292;28;20295;-71
2022/07/29 05:33:45;;;;;;;3.07;2.77;;;20.30;84.40;;;;;;5016701;28;20506;-70
2022/07/29 05:36:11;;;;;;;3.90;3.40;;;20.30;84.40;;;;;;5040160;28;20225;-70
2022/07/29 05:38:37;;;;;;;3.60;3.30;;;20.30;84.20;;;;;;5068558;28;20620;-70
2022/07/29 05:41:03;;;;;;;3.13;2.90;;;20.30;83.80;;;;;;5034703;28;20568;-70
2022/07/29 05:43:29;;;;;;;4.43;3.40;;;20.40;86.60;;;;;;5067855;28;20231;-71
2022/07/29 05:45:55;;;;;;;4.30;3.80;;;20.40;85.80;;;;;;5034464;28;20461;-70
2022/07/29 05:48:20;;;;;;;4.83;2.90;;;20.40;86.60;;;;;;5032939;28;20749;-69
2022/07/29 05:50:46;;;;;;;3.93;3.30;;;20.50;86.20;;;;;;5034777;28;20627;-69
2022/07/29 05:53:13;;;;;;;4.27;3.87;;;20.50;86.30;;;;;;5064665;28;20705;-69
2022/07/29 05:55:39;;;;;;;3.80;3.50;;;20.50;86.00;;;;;;5034121;28;20450;-70
2022/07/29 05:58:05;;;;;;;4.00;3.10;;;20.50;86.40;;;;;;5051917;28;20754;-70
2022/07/29 06:00:30;;;;;;;3.43;3.20;;;20.50;86.10;;;;;;5051229;28;20233;-70
2022/07/29 06:02:56;;;;;;;3.70;3.40;;;20.60;86.70;;;;;;5052355;28;20235;-71
2022/07/29 06:05:22;;;;;;;4.17;3.23;;;20.70;87.20;;;;;;5023219;28;20307;-70
2022/07/29 06:07:48;;;;;;;4.80;3.90;;;20.70;86.90;;;;;;5052211;28;20886;-71
2022/07/29 06:10:14;;;;;;;3.63;3.33;;;20.70;86.60;;;;;;5031579;28;20546;-71
2022/07/29 06:12:39;;;;;;;4.60;3.27;;;20.80;87.00;;;;;;5050090;28;20238;-71
2022/07/29 06:15:06;;;;;;;4.50;3.70;;;20.80;86.80;;;;;;5030505;28;20680;-71
2022/07/29 06:17:31;;;;;;;3.03;2.80;;;20.90;87.20;;;;;;5046749;28;20253;-71
2022/07/29 06:19:57;;;;;;;3.40;3.10;;;20.90;87.70;;;;;;5031357;28;20486;-71
2022/07/29 06:22:23;;;;;;;3.47;3.27;;;20.90;87.00;;;;;;5047903;28;20773;-71
2022/07/29 06:24:49;;;;;;;4.40;3.90;;;20.90;86.90;;;;;;5034417;28;20257;-72
2022/07/29 06:27:16;;;;;;;3.90;3.57;;;21.00;87.20;;;;;;5032209;28;20450;-71
2022/07/29 06:29:41;;;;;;;4.60;3.77;;;21.10;87.60;;;;;;5033972;28;20314;-71
2022/07/29 06:32:09;;;;;;;3.63;3.33;;;21.10;86.50;;;;;;5068893;28;20883;-71
2022/07/29 06:34:35;;;;;;;4.87;3.40;;;21.10;86.80;;;;;;5062578;28;20222;-71
2022/07/29 06:37:06;;;;;;;3.60;3.27;;;21.20;87.30;;;;;;5068515;28;20469;-71
2022/07/29 06:39:34;;;;;;;3.70;3.40;;;21.20;87.70;;;;;;5033693;28;20453;-72
2022/07/29 06:42:00;;;;;;;4.00;3.60;;;21.30;88.50;;;;;;5033827;28;20461;-70
2022/07/29 06:44:26;;;;;;;3.70;3.40;;;21.40;88.10;;;;;;5053011;28;20472;-69
2022/07/29 06:46:52;;;;;;;3.70;3.40;;;21.50;89.00;;;;;;5069418;28;20222;-71
2022/07/29 06:49:18;;;;;;;5.13;3.73;;;21.60;89.10;;;;;;5015684;28;20232;-70
2022/07/29 06:51:44;;;;;;;3.70;3.43;;;21.60;88.60;;;;;;5045833;28;20445;-71
2022/07/29 06:54:09;;;;;;;4.10;3.30;;;21.70;89.20;;;;;;5034333;28;20226;-71
2022/07/29 06:56:37;;;;;;;4.40;3.50;;;21.80;88.50;;;;;;5047254;28;20227;-71
2022/07/29 06:59:03;;;;;;;5.70;3.73;;;21.80;88.70;;;;;;5051002;28;20600;-71
2022/07/29 07:01:29;;;;;;;4.17;3.63;;;21.80;88.70;;;;;;5049943;28;20449;-71
2022/07/29 07:03:55;;;;;;;4.17;3.77;;;21.90;88.80;;;;;;5050554;28;20464;-70
2022/07/29 07:06:21;;;;;;;6.67;3.90;;;21.90;88.40;;;;;;5065720;28;20211;-71
2022/07/29 07:08:47;;;;;;;5.63;3.53;;;22.00;88.00;;;;;;5053068;28;20948;-70
2022/07/29 07:11:13;;;;;;;4.27;3.30;;;22.10;89.00;;;;;;5036406;28;20219;-70
2022/07/29 07:13:39;;;;;;;4.20;3.63;;;22.20;88.00;;;;;;5051585;28;20667;-71
2022/07/29 07:16:04;;;;;;;3.93;3.63;;;22.20;87.80;;;;;;5052965;28;20235;-70
2022/07/29 07:18:30;;;;;;;4.03;3.73;;;22.30;87.10;;;;;;5036081;28;20219;-70
2022/07/29 07:20:56;;;;;;;3.93;3.40;;;22.30;86.60;;;;;;5052873;28;20330;-71
2022/07/29 07:23:22;;;;;;;3.30;3.00;;;22.40;86.00;;;;;;5067117;28;20242;-71
2022/07/29 07:25:48;;;;;;;2.67;2.47;;;22.50;86.00;;;;;;5053519;28;20977;-70
2022/07/29 07:28:13;;;;;;;3.57;3.27;;;22.50;83.00;;;;;;5070203;28;20258;-70
2022/07/29 07:30:39;;;;;;;3.83;3.40;;;22.50;83.80;;;;;;5053414;28;20218;-70
2022/07/29 07:33:05;;;;;;;5.40;3.10;;;22.50;84.00;;;;;;5036743;28;20229;-70
2022/07/29 07:35:31;;;;;;;3.60;3.30;;;22.60;83.80;;;;;;5052513;28;20456;-71
2022/07/29 07:37:57;;;;;;;4.10;3.40;;;22.70;84.50;;;;;;5050408;28;20223;-71
2022/07/29 07:40:23;;;;;;;5.90;5.50;;;22.70;81.20;;;;;;5042344;28;20236;-71
2022/07/29 07:42:49;;;;;;;3.50;3.07;;;22.80;81.70;;;;;;5052367;28;20944;-70
2022/07/29 07:45:15;;;;;;;3.60;3.30;;;22.90;83.10;;;;;;5048626;28;20551;-70
2022/07/29 07:47:41;;;;;;;3.90;3.60;;;23.00;82.20;;;;;;5051994;28;20582;-70
2022/07/29 07:50:09;;;;;;;3.90;3.50;;;23.00;82.00;;;;;;5034173;28;20254;-70
2022/07/29 07:52:46;;;;;;;3.53;3.23;;;23.10;82.70;;;;;;5054067;28;20694;-70
2022/07/29 07:55:12;;;;;;;7.87;3.27;;;23.20;83.10;;;;;;5065594;28;20944;-71
2022/07/29 07:57:38;;;;;;;4.10;3.70;;;23.30;82.80;;;;;;5033218;28;20553;-70
2022/07/29 08:00:04;;;;;;;3.23;2.80;;;23.40;82.40;;;;;;5037275;28;20222;-70
2022/07/29 08:02:39;;;;;;;4.37;3.23;;;23.40;82.00;;;;;;5053903;28;20562;-70
2022/07/29 08:05:06;;;;;;;4.70;3.23;;;23.50;81.60;;;;;;5025107;28;20523;-71
2022/07/29 08:07:32;;;;;;;7.20;3.60;;;23.50;81.30;;;;;;5044449;28;20454;-70
2022/07/29 08:09:58;;;;;;;4.50;4.10;;;23.60;81.40;;;;;;5034237;28;20828;-70
2022/07/29 08:12:24;;;;;;;6.03;3.37;;;23.70;82.90;;;;;;5060432;28;20449;-71
2022/07/29 08:14:49;;;;;;;4.17;3.80;;;23.80;81.80;;;;;;5068510;28;20222;-70
2022/07/29 08:17:15;;;;;;;3.27;2.97;;;23.80;80.60;;;;;;5052193;28;20325;-71
2022/07/29 08:19:41;;;;;;;3.60;3.30;;;23.90;80.30;;;;;;5052272;28;20242;-70
2022/07/29 08:22:06;;;;;;;4.10;3.70;;;23.90;80.70;;;;;;5051230;28;20223;-70
2022/07/29 08:24:46;;;;;;;7.97;3.60;;;23.90;79.10;;;;;;5052076;28;20223;-70
2022/07/29 08:27:13;;;;;;;4.10;3.80;;;24.00;79.00;;;;;;5047378;28;20233;-69
2022/07/29 08:29:39;;;;;;;4.90;3.43;;;24.10;79.50;;;;;;5048737;28;20536;-70
2022/07/29 08:32:05;;;;;;;5.70;3.70;;;24.20;79.20;;;;;;5070448;28;20465;-71
2022/07/29 08:34:31;;;;;;;3.20;3.00;;;24.20;79.40;;;;;;5047298;28;20453;-71
2022/07/29 08:36:57;;;;;;;4.50;3.67;;;24.40;80.50;;;;;;5034786;28;20484;-68
2022/07/29 08:39:24;;;;;;;5.30;3.80;;;24.50;80.30;;;;;;5051433;28;20226;-68
2022/07/29 08:41:51;;;;;;;6.17;3.70;;;24.50;78.90;;;;;;5051387;28;20218;-67
2022/07/29 08:44:21;;;;;;;3.90;3.53;;;24.50;78.10;;;;;;5069167;28;20445;-69
2022/07/29 08:46:47;;;;;;;4.63;3.30;;;24.60;76.60;;;;;;5052824;28;20488;-68
2022/07/29 08:49:13;;;;;;;3.63;3.20;;;24.60;76.60;;;;;;5031489;28;20545;-67
2022/07/29 08:51:41;;;;;;;7.97;4.57;;;24.60;76.90;;;;;;5069426;28;20898;-68
2022/07/29 08:54:09;;;;;;;3.70;3.47;;;24.60;77.40;;;;;;5052087;28;20257;-67
2022/07/29 08:56:35;;;;;;;5.10;3.87;;;24.70;76.60;;;;;;5069617;28;20465;-67
2022/07/29 08:59:04;;;;;;;4.03;3.60;;;24.70;75.60;;;;;;5034614;28;20457;-68
2022/07/29 09:01:33;;;;;;;4.40;3.97;;;24.80;76.00;;;;;;5034733;28;20503;-67
2022/07/29 09:04:01;;;;;;;8.40;3.97;;;24.90;76.70;;;;;;5046611;28;20484;-68
2022/07/29 09:06:32;;;;;;;4.40;4.00;;;24.90;76.20;;;;;;5031071;28;20453;-68
2022/07/29 09:08:59;;;;;;;9.20;4.23;;;25.00;75.60;;;;;;5062712;28;20460;-68
2022/07/29 09:11:26;;;;;;;5.70;5.13;;;25.10;77.00;;;;;;5050241;28;20469;-68
2022/07/29 09:13:51;;;;;;;4.57;4.17;;;25.20;78.20;;;;;;5046908;28;20463;-67
2022/07/29 09:16:17;;;;;;;4.67;4.27;;;25.30;77.50;;;;;;5048486;28;20477;-68
2022/07/29 09:18:45;;;;;;;5.00;4.20;;;25.40;78.20;;;;;;5063005;28;20301;-68
2022/07/29 09:24:13;;;;;;;5.10;3.40;;;25.50;76.00;;;;;;5064693;28;20493;-68
2022/07/29 09:26:41;;;;;;;4.23;3.83;;;25.50;74.10;;;;;;5039956;28;20445;-68
2022/07/29 09:29:14;;;;;;;4.50;3.90;;;25.50;74.70;;;;;;5047757;28;20457;-68
2022/07/29 09:31:42;;;;;;;3.90;3.60;;;25.70;76.00;;;;;;5045901;28;20965;-68
2022/07/29 09:34:09;;;;;;;4.67;3.83;;;25.80;76.10;;;;;;5064358;28;20468;-67
2022/07/29 09:36:46;;;;;;;3.87;3.57;;;25.80;74.70;;;;;;5041524;28;21004;-67
2022/07/29 09:39:13;;;;;;;4.83;3.80;;;25.80;74.90;;;;;;5028793;28;20498;-67
2022/07/29 09:41:52;;;;;;;5.87;3.60;;;25.90;75.10;;;;;;5068020;28;20483;-68
2022/07/29 09:44:19;;;;;;;4.90;4.43;;;25.90;75.10;;;;;;5057317;28;20820;-68
2022/07/29 09:47:05;;;;;;;21.13;6.33;;;26.00;74.40;;;;;;5064884;28;20441;-68
2022/07/29 09:49:44;;;;;;;4.63;4.23;;;26.00;73.60;;;;;;5060875;28;20448;-68
2022/07/29 09:52:11;;;;;;;4.20;3.90;;;26.00;74.10;;;;;;5048665;28;20456;-68
2022/07/29 09:54:37;;;;;;;4.70;4.30;;;26.00;73.80;;;;;;5043958;28;20827;-68
2022/07/29 09:57:21;;;;;;;4.33;3.90;;;26.10;74.40;;;;;;5042579;28;20481;-67
2022/07/29 10:00:12;;;;;;;4.30;4.00;;;26.10;74.80;;;;;;5044794;28;20466;-68
2022/07/29 10:02:40;;;;;;;6.10;4.87;;;26.20;75.00;;;;;;5044067;28;20454;-67
2022/07/29 10:05:20;;;;;;;5.20;4.30;;;26.20;74.10;;;;;;5040333;28;20457;-68
2022/07/29 10:07:56;;;;;;;5.00;4.50;;;26.30;74.90;;;;;;5079382;28;20464;-67
2022/07/29 10:10:28;;;;;;;4.83;4.40;;;26.30;72.80;;;;;;5060876;28;21034;-68
2022/07/29 10:12:59;;;;;;;4.70;4.30;;;26.30;73.20;;;;;;5040562;28;20466;-68
2022/07/29 10:15:27;;;;;;;4.87;4.40;;;26.30;73.50;;;;;;5060037;28;20493;-68
2022/07/29 10:17:55;;;;;;;5.60;4.20;;;26.40;72.70;;;;;;5041582;28;20457;-68
2022/07/29 10:20:22;;;;;;;4.40;4.00;;;26.50;73.00;;;;;;5030770;28;20470;-68
2022/07/29 10:22:49;;;;;;;4.77;4.37;;;26.60;73.60;;;;;;5036022;28;20978;-68
2022/07/29 10:25:16;;;;;;;4.63;3.97;;;26.70;72.60;;;;;;5039543;28;20460;-69
2022/07/29 10:27:43;;;;;;;4.60;4.20;;;26.80;72.40;;;;;;5050231;28;20975;-68
2022/07/29 10:30:09;;;;;;;4.50;4.20;;;26.80;72.40;;;;;;5029403;28;20461;-68
2022/07/29 10:32:56;;;;;;;6.10;4.13;;;26.90;72.30;;;;;;5030067;28;20508;-68
2022/07/29 10:35:51;;;;;;;4.70;4.30;;;26.90;72.10;;;;;;5064015;28;20450;-68
2022/07/29 10:38:53;;;;;;;4.90;4.50;;;27.00;73.50;;;;;;5053785;28;20461;-68
2022/07/29 10:41:27;;;;;;;4.60;4.20;;;27.20;73.20;;;;;;5049463;28;20505;-69
2022/07/29 10:44:08;;;;;;;7.40;5.10;;;27.20;72.50;;;;;;5050165;28;20467;-70
2022/07/29 10:46:39;;;;;;;6.10;4.20;;;27.40;72.30;;;;;;5062234;28;20473;-70
2022/07/29 10:49:15;;;;;;;4.70;3.83;;;27.50;71.90;;;;;;5050716;28;20471;-71
2022/07/29 10:52:09;;;;;;;4.60;4.30;;;27.60;71.10;;;;;;5068705;28;20439;-71
2022/07/29 10:54:38;;;;;;;4.23;3.93;;;27.60;71.60;;;;;;5057833;28;20533;-71
2022/07/29 10:57:16;;;;;;;4.50;4.20;;;27.60;71.10;;;;;;5063003;28;20541;-71
2022/07/29 10:59:46;;;;;;;5.27;4.77;;;27.70;71.30;;;;;;5047494;28;20220;-70
2022/07/29 11:02:33;;;;;;;4.60;4.20;;;27.80;71.60;;;;;;5048203;28;20469;-70
2022/07/29 11:05:19;;;;;;;4.80;4.40;;;28.00;71.90;;;;;;5047610;28;20697;-71
2022/07/29 11:08:11;;;;;;;5.73;4.40;;;28.10;71.00;;;;;;5033725;28;20230;-70
2022/07/29 11:10:37;;;;;;;4.60;4.30;;;28.20;71.10;;;;;;5079591;28;20226;-71
2022/07/29 11:13:03;;;;;;;4.53;4.07;;;28.20;70.90;;;;;;5035206;28;20254;-68
2022/07/29 11:15:30;;;;;;;5.10;4.63;;;28.20;70.70;;;;;;5059138;28;20669;-68
2022/07/29 11:18:00;;;;;;;5.10;4.70;;;28.30;71.00;;;;;;5036854;28;20306;-68
2022/07/29 11:20:41;;;;;;;6.17;4.63;;;28.40;69.70;;;;;;5050115;28;20239;-68
2022/07/29 11:23:28;;;;;;;5.05;4.65;;;28.40;68.80;;;;;;5034277;28;20368;-68
2022/07/29 11:26:14;;;;;;;4.97;4.22;;;28.50;69.00;;;;;;5061903;28;20226;-68
2022/07/29 11:28:59;;;;;;;5.35;4.50;;;28.60;68.80;;;;;;5069627;28;20232;-68
2022/07/29 11:31:36;;;;;;;4.35;4.05;;;28.70;68.40;;;;;;5066363;28;20234;-67
2022/07/29 11:34:32;;;;;;;4.65;4.32;;;28.80;69.40;;;;;;5052385;28;20696;-68
2022/07/29 11:37:08;;;;;;;5.60;5.07;;;29.00;69.50;;;;;;5032172;28;20240;-68
2022/07/29 11:39:58;;;;;;;4.60;4.30;;;29.10;69.00;;;;;;5069456;28;20231;-68
2022/07/29 11:42:23;;;;;;;4.15;3.85;;;29.20;69.50;;;;;;5021972;28;20749;-68
2022/07/29 11:45:09;;;;;;;5.50;4.90;;;29.20;69.00;;;;;;5052332;28;20229;-69
2022/07/29 11:47:39;;;;;;;4.47;4.18;;;29.30;67.80;;;;;;5048691;28;20228;-68
2022/07/29 11:50:08;;;;;;;6.90;4.88;;;29.40;68.70;;;;;;5070525;28;20321;-68
2022/07/29 11:52:42;;;;;;;6.95;4.75;;;29.50;68.50;;;;;;5030931;28;20319;-69
2022/07/29 11:55:09;;;;;;;4.75;4.45;;;29.70;68.50;;;;;;5072155;28;20235;-69
2022/07/29 11:57:35;;;;;;;4.90;4.55;;;29.80;68.40;;;;;;5052200;28;20232;-68
2022/07/29 12:00:02;;;;;;;4.60;4.18;;;30.00;68.40;;;;;;5071045;28;20295;-68
2022/07/29 12:02:42;;;;;;;8.05;4.90;;;30.10;67.80;;;;;;5070187;28;20229;-68
2022/07/29 12:05:12;;;;;;;5.78;4.65;;;30.10;67.60;;;;;;5068579;28;20273;-69
2022/07/29 12:07:39;;;;;;;4.78;4.40;;;30.30;67.90;;;;;;5053297;28;20749;-69
2022/07/29 12:10:06;;;;;;;5.10;4.60;;;30.40;68.40;;;;;;5050125;28;20228;-69
2022/07/29 12:12:32;;;;;;;5.38;4.90;;;30.30;66.30;;;;;;5058616;28;20255;-69
2022/07/29 12:15:09;;;;;;;5.65;5.25;;;30.30;65.20;;;;;;5030155;28;20236;-69
2022/07/29 12:17:35;;;;;;;4.72;4.43;;;30.30;65.30;;;;;;5033611;28;20669;-69
2022/07/29 12:20:03;;;;;;;5.65;5.35;;;30.30;64.30;;;;;;5051247;28;20258;-68
2022/07/29 12:22:36;;;;;;;6.65;5.65;;;30.40;62.80;;;;;;5033919;28;20776;-69
2022/07/29 12:25:11;;;;;;;4.75;4.45;;;30.50;63.20;;;;;;5051224;28;20255;-69
2022/07/29 12:27:38;;;;;;;5.13;4.72;;;30.60;61.90;;;;;;5062383;28;20256;-69
2022/07/29 12:30:13;;;;;;;5.25;4.85;;;30.70;63.40;;;;;;5069562;28;20260;-69
2022/07/29 12:32:47;;;;;;;5.70;5.20;;;30.80;64.10;;;;;;5034724;28;20671;-69
2022/07/29 12:35:21;;;;;;;4.85;4.45;;;31.00;61.60;;;;;;5036559;28;20212;-69
2022/07/29 12:37:47;;;;;;;4.65;4.22;;;31.10;61.80;;;;;;5067744;28;20237;-69
2022/07/29 12:40:16;;;;;;;5.15;4.60;;;31.10;61.70;;;;;;5048664;28;20272;-69
2022/07/29 12:43:09;;;;;;;5.05;4.70;;;31.10;60.90;;;;;;5034737;28;20233;-69
2022/07/29 12:45:36;;;;;;;5.40;4.88;;;31.10;60.20;;;;;;5065019;28;20214;-69
2022/07/29 12:48:02;;;;;;;6.20;5.70;;;31.10;61.10;;;;;;5053093;28;20252;-69
2022/07/29 12:50:28;;;;;;;5.82;5.43;;;31.10;60.00;;;;;;5035552;28;20229;-69
2022/07/29 12:52:54;;;;;;;4.50;4.20;;;30.90;61.00;;;;;;5074858;28;20244;-69
2022/07/29 12:55:40;;;;;;;5.57;5.15;;;31.00;61.50;;;;;;5067510;28;20223;-69
2022/07/29 12:58:05;;;;;;;5.13;4.72;;;31.00;61.90;;;;;;5067348;28;20223;-68
2022/07/29 13:00:31;;;;;;;4.82;4.43;;;30.90;61.40;;;;;;5079498;28;20584;-68